createdAt,value
2023-01-26T00:00:04.563Z,38.13
2023-01-26T00:02:33.402Z,38.47
2023-01-26T00:05:01.744Z,38.57
2023-01-26T00:07:30.466Z,37.50
2023-01-26T00:09:58.778Z,39.37
2023-01-26T00:12:28.463Z,37.77
2023-01-26T00:14:56.715Z,37.50
2023-01-26T00:17:27.641Z,38.10
2023-01-26T00:19:57.924Z,37.73
2023-01-26T00:22:28.193Z,37.72
2023-01-26T00:24:56.493Z,39.88
2023-01-26T00:27:24.845Z,40.00
2023-01-26T00:29:54.848Z,38.37
2023-01-26T00:32:23.192Z,39.60
2023-01-26T00:34:51.555Z,38.53
2023-01-26T00:37:20.216Z,37.43
2023-01-26T00:39:48.491Z,38.27
2023-01-26T00:42:16.836Z,40.67
2023-01-26T00:44:45.207Z,39.77
2023-01-26T00:47:16.302Z,39.03
2023-01-26T00:49:45.018Z,39.20
2023-01-26T00:52:14.295Z,40.63
2023-01-26T00:54:42.600Z,40.33
2023-01-26T00:57:11.352Z,40.47
2023-01-26T00:59:39.608Z,39.77
2023-01-26T01:02:08.003Z,41.33
2023-01-26T01:04:37.803Z,43.27
2023-01-26T01:07:06.173Z,43.45
2023-01-26T01:09:34.771Z,45.17
2023-01-26T01:12:03.118Z,44.63
2023-01-26T01:14:31.449Z,45.77
2023-01-26T01:17:00.111Z,45.67
2023-01-26T01:19:28.885Z,45.27
2023-01-26T01:21:58.548Z,44.03
2023-01-26T01:24:26.923Z,44.65
2023-01-26T01:26:55.179Z,47.10
2023-01-26T01:29:23.520Z,43.53
2023-01-26T01:31:51.860Z,46.47
2023-01-26T01:34:20.205Z,43.27
2023-01-26T01:36:48.579Z,43.37
2023-01-26T01:39:18.220Z,47.17
2023-01-26T01:41:46.822Z,45.53
2023-01-26T01:44:19.438Z,46.13
2023-01-26T01:46:53.030Z,47.57
2023-01-26T01:49:27.079Z,45.33
2023-01-26T01:51:59.735Z,47.77
2023-01-26T01:54:36.532Z,44.63
2023-01-26T01:57:15.412Z,45.60
2023-01-26T01:59:47.094Z,46.50
2023-01-26T02:02:16.037Z,46.63
2023-01-26T02:04:44.520Z,46.10
2023-01-26T02:07:13.359Z,44.27
2023-01-26T02:10:02.273Z,44.37
2023-01-26T02:12:33.710Z,44.50
2023-01-26T02:15:03.892Z,45.37
2023-01-26T02:17:32.271Z,44.05
2023-01-26T02:20:09.630Z,42.07
2023-01-26T02:22:48.110Z,42.60
2023-01-26T02:25:33.525Z,43.88
2023-01-26T02:28:03.264Z,43.80
2023-01-26T02:30:31.943Z,42.88
2023-01-26T02:33:00.848Z,40.83
2023-01-26T02:35:29.290Z,42.27
2023-01-26T02:37:57.854Z,42.87
2023-01-26T02:40:34.320Z,43.83
2023-01-26T02:43:03.255Z,41.20
2023-01-26T02:45:32.680Z,42.77
2023-01-26T02:48:04.696Z,40.50
2023-01-26T02:50:32.639Z,42.00
2023-01-26T02:53:01.036Z,39.97
2023-01-26T02:55:30.752Z,40.72
2023-01-26T02:58:01.866Z,40.47
2023-01-26T03:00:37.187Z,40.70
2023-01-26T03:03:14.711Z,39.17
2023-01-26T03:05:43.389Z,39.80
2023-01-26T03:08:11.666Z,39.17
2023-01-26T03:10:40.527Z,39.93
2023-01-26T03:13:09.205Z,40.33
2023-01-26T03:15:52.381Z,40.43
2023-01-26T03:18:41.774Z,39.80
2023-01-26T03:21:31.653Z,41.13
2023-01-26T03:24:17.714Z,39.35
2023-01-26T03:27:04.577Z,41.07
2023-01-26T03:29:34.426Z,39.03
2023-01-26T03:32:05.219Z,40.83
2023-01-26T03:37:02.387Z,38.57
2023-01-26T03:39:56.160Z,39.63
2023-01-26T03:42:42.807Z,40.10
2023-01-26T03:45:29.637Z,39.50
2023-01-26T03:48:25.474Z,38.50
2023-01-26T03:51:11.533Z,38.22
2023-01-26T03:53:57.543Z,38.47
2023-01-26T03:56:27.274Z,36.88
2023-01-26T03:59:07.921Z,38.93
2023-01-26T04:01:38.280Z,38.50
2023-01-26T04:07:12.543Z,38.37
2023-01-26T04:09:46.191Z,38.83
2023-01-26T04:12:14.819Z,39.60
2023-01-26T04:15:12.716Z,40.10
2023-01-26T04:17:59.110Z,41.00
2023-01-26T04:20:46.512Z,37.97
2023-01-26T04:23:19.439Z,38.10
2023-01-26T04:25:49.507Z,39.33
2023-01-26T04:28:18.499Z,38.53
2023-01-26T04:30:48.295Z,39.35
2023-01-26T04:33:16.605Z,37.87
2023-01-26T04:35:46.453Z,37.57
2023-01-26T04:38:14.922Z,38.22
2023-01-26T04:40:44.194Z,37.63
2023-01-26T04:43:12.524Z,40.40
2023-01-26T04:45:41.043Z,39.20
2023-01-26T04:48:09.357Z,40.05
2023-01-26T04:50:37.694Z,38.43
2023-01-26T04:53:07.347Z,37.57
2023-01-26T04:55:35.692Z,39.15
2023-01-26T04:58:04.061Z,37.17
2023-01-26T05:00:32.983Z,37.38
2023-01-26T05:03:02.600Z,36.90
2023-01-26T05:05:31.190Z,37.87
2023-01-26T05:07:59.476Z,36.57
2023-01-26T05:10:31.723Z,36.90
2023-01-26T05:13:24.799Z,36.10
2023-01-26T05:16:06.031Z,36.92
2023-01-26T05:18:43.610Z,36.75
2023-01-26T05:21:27.465Z,36.33
2023-01-26T05:23:56.498Z,37.78
2023-01-26T05:27:22.770Z,37.97
2023-01-26T05:29:55.206Z,36.47
2023-01-26T05:32:23.929Z,34.40
2023-01-26T05:34:52.251Z,34.30
2023-01-26T05:37:20.909Z,33.57
2023-01-26T05:39:49.225Z,32.20
2023-01-26T05:42:19.537Z,29.95
2023-01-26T05:45:08.147Z,29.88
2023-01-26T05:47:38.017Z,27.50
2023-01-26T05:50:08.025Z,26.92
2023-01-26T05:52:36.875Z,26.95
2023-01-26T05:55:06.606Z,25.20
2023-01-26T05:57:36.909Z,25.23
2023-01-26T06:00:09.884Z,24.23
2023-01-26T06:02:53.943Z,24.45
2023-01-26T06:05:22.840Z,24.17
2023-01-26T06:07:51.838Z,24.52
2023-01-26T06:10:26.428Z,23.02
2023-01-26T06:13:25.334Z,22.52
2023-01-26T06:16:02.524Z,21.08
2023-01-26T06:21:02.642Z,18.13
2023-01-26T06:23:31.909Z,18.45
2023-01-26T06:26:03.718Z,17.13
2023-01-26T06:28:33.388Z,16.33
2023-01-26T06:31:02.220Z,17.10
2023-01-26T06:33:31.350Z,17.20
2023-01-26T06:36:03.834Z,16.73
2023-01-26T06:38:32.627Z,15.80
2023-01-26T06:41:03.002Z,13.68
2023-01-26T06:43:34.997Z,13.43
2023-01-26T06:46:04.865Z,13.98
2023-01-26T06:48:35.507Z,14.38
2023-01-26T06:51:24.018Z,11.93
2023-01-26T06:53:55.161Z,10.80
2023-01-26T06:56:34.152Z,10.80
2023-01-26T06:59:26.928Z,10.63
2023-01-26T07:02:24.355Z,10.80
2023-01-26T07:04:53.057Z,9.35
2023-01-26T07:07:21.334Z,10.45
2023-01-26T07:09:49.664Z,9.32
2023-01-26T07:12:17.932Z,10.45
2023-01-26T07:14:47.706Z,9.35
2023-01-26T07:17:15.926Z,10.83
2023-01-26T07:19:45.284Z,9.20
2023-01-26T07:22:15.638Z,9.73
2023-01-26T07:24:43.936Z,9.75
2023-01-26T07:27:12.216Z,8.98
2023-01-26T07:29:40.458Z,9.43
2023-01-26T07:32:10.139Z,10.88
2023-01-26T07:34:38.379Z,9.73
2023-01-26T07:37:06.664Z,9.55
2023-01-26T07:39:34.974Z,9.57
2023-01-26T07:42:03.336Z,8.23
2023-01-26T07:44:46.512Z,8.70
2023-01-26T07:47:16.214Z,9.35
2023-01-26T07:49:44.496Z,7.55
2023-01-26T07:52:12.764Z,9.35
2023-01-26T07:54:41.156Z,9.13
2023-01-26T07:57:09.485Z,9.77
2023-01-26T07:59:38.100Z,8.43
2023-01-26T08:02:06.341Z,8.82
2023-01-26T08:04:35.996Z,8.95
2023-01-26T08:07:04.796Z,9.37
2023-01-26T08:09:33.263Z,8.38
2023-01-26T08:12:01.779Z,8.18
2023-01-26T08:14:45.152Z,8.57
2023-01-26T08:17:17.389Z,8.52
2023-01-26T08:19:47.935Z,8.93
2023-01-26T08:22:16.203Z,8.68
2023-01-26T08:24:44.427Z,8.90
2023-01-26T08:27:12.997Z,10.38
2023-01-26T08:29:41.360Z,8.98
2023-01-26T08:32:10.045Z,9.80
2023-01-26T08:34:38.343Z,10.35
2023-01-26T08:37:07.983Z,8.75
2023-01-26T08:39:36.308Z,10.07
2023-01-26T08:42:04.896Z,9.02
2023-01-26T08:44:33.191Z,9.88
2023-01-26T08:47:01.462Z,8.55
2023-01-26T08:49:29.800Z,8.30
2023-01-26T08:51:58.018Z,8.93
2023-01-26T08:54:28.726Z,9.05
2023-01-26T08:59:25.101Z,8.88
2023-01-26T09:01:53.461Z,8.52
2023-01-26T09:04:21.879Z,9.50
2023-01-26T09:06:50.181Z,8.85
2023-01-26T09:09:18.577Z,9.07
2023-01-26T09:11:48.216Z,8.88
2023-01-26T09:14:16.542Z,8.10
2023-01-26T09:16:44.894Z,8.27
2023-01-26T09:19:13.228Z,8.95
2023-01-26T09:21:41.520Z,8.43
2023-01-26T09:24:10.550Z,8.52
2023-01-26T09:26:38.816Z,8.38
2023-01-26T09:29:08.522Z,7.53
2023-01-26T09:31:36.876Z,9.55
2023-01-26T09:34:05.167Z,8.32
2023-01-26T09:36:33.871Z,9.18
2023-01-26T09:39:02.196Z,7.93
2023-01-26T09:41:53.120Z,10.23
2023-01-26T09:47:06.621Z,9.30
2023-01-26T09:49:48.420Z,9.48
2023-01-26T09:52:25.915Z,8.45
2023-01-26T09:54:56.405Z,8.77
2023-01-26T09:57:32.017Z,8.25
2023-01-26T10:00:09.244Z,9.45
2023-01-26T10:02:52.774Z,8.18
2023-01-26T10:05:31.482Z,8.60
2023-01-26T10:08:13.343Z,8.38
2023-01-26T10:10:47.956Z,7.57
2023-01-26T10:13:17.982Z,8.50
2023-01-26T10:15:53.528Z,8.32
2023-01-26T10:18:29.884Z,8.15
2023-01-26T10:21:01.769Z,7.80
2023-01-26T10:23:32.838Z,7.82
2023-01-26T10:26:13.053Z,8.40
2023-01-26T10:28:44.053Z,8.85
2023-01-26T10:31:18.831Z,7.18
2023-01-26T10:33:55.824Z,8.20
2023-01-26T10:36:24.497Z,7.78
2023-01-26T10:38:53.577Z,8.15
2023-01-26T10:41:28.609Z,8.02
2023-01-26T10:43:59.474Z,7.95
2023-01-26T10:46:33.911Z,7.28
2023-01-26T10:49:05.466Z,8.00
2023-01-26T10:51:36.357Z,7.32
2023-01-26T10:54:24.132Z,7.80
2023-01-26T10:56:56.643Z,6.97
2023-01-26T10:59:31.504Z,7.00
2023-01-26T11:02:04.720Z,7.05
2023-01-26T11:04:33.030Z,7.45
2023-01-26T11:07:27.093Z,7.03
2023-01-26T11:09:56.797Z,6.88
2023-01-26T11:12:27.232Z,7.18
2023-01-26T11:15:08.726Z,6.60
2023-01-26T11:17:44.340Z,6.97
2023-01-26T11:20:48.921Z,8.02
2023-01-26T11:23:29.522Z,7.78
2023-01-26T11:26:29.504Z,7.40
2023-01-26T11:29:18.622Z,6.40
2023-01-26T11:31:58.708Z,6.35
2023-01-26T11:34:42.594Z,6.38
2023-01-26T11:37:40.980Z,6.43
2023-01-26T11:40:29.977Z,7.43
2023-01-26T11:43:34.945Z,6.53
2023-01-26T11:46:28.299Z,7.03
2023-01-26T11:49:16.137Z,7.43
2023-01-26T11:52:02.037Z,7.45
2023-01-26T11:55:05.338Z,6.97
2023-01-26T11:57:44.235Z,7.18
2023-01-26T12:00:30.023Z,7.65
2023-01-26T12:03:03.997Z,6.72
2023-01-26T12:05:42.304Z,6.38
2023-01-26T12:08:21.398Z,6.88
2023-01-26T12:11:21.630Z,7.15
2023-01-26T12:13:59.285Z,5.85
2023-01-26T12:16:39.154Z,6.88
2023-01-26T12:19:16.603Z,5.97
2023-01-26T12:21:47.081Z,5.93
2023-01-26T12:24:54.348Z,6.40
2023-01-26T12:27:24.735Z,7.25
2023-01-26T12:29:59.077Z,6.53
2023-01-26T12:32:27.403Z,7.78
2023-01-26T12:34:55.745Z,6.82
2023-01-26T12:37:42.844Z,7.50
2023-01-26T12:40:26.406Z,8.15
2023-01-26T12:43:14.241Z,7.35
2023-01-26T12:45:46.068Z,7.57
2023-01-26T12:48:20.509Z,7.75
2023-01-26T12:50:54.142Z,7.85
2023-01-26T12:53:30.202Z,7.05
2023-01-26T12:56:10.773Z,6.90
2023-01-26T12:58:43.212Z,6.55
2023-01-26T13:01:15.009Z,7.30
2023-01-26T13:03:47.274Z,7.97
2023-01-26T13:06:24.672Z,7.03
2023-01-26T13:09:04.382Z,7.10
2023-01-26T13:11:50.424Z,6.75
2023-01-26T13:14:38.217Z,7.13
2023-01-26T13:17:55.899Z,6.88
2023-01-26T13:20:47.317Z,7.28
2023-01-26T13:23:42.594Z,7.65
2023-01-26T13:26:18.215Z,7.28
2023-01-26T13:28:49.797Z,7.47
2023-01-26T13:31:33.899Z,7.28
2023-01-26T13:34:09.016Z,6.90
2023-01-26T13:36:40.303Z,7.10
2023-01-26T13:39:17.271Z,8.15
2023-01-26T13:41:48.427Z,7.43
2023-01-26T13:44:23.278Z,6.80
2023-01-26T13:46:56.842Z,7.40
2023-01-26T13:49:28.122Z,6.57
2023-01-26T13:51:56.500Z,7.35
2023-01-26T13:54:27.133Z,7.50
2023-01-26T13:59:34.520Z,6.28
2023-01-26T14:04:35.145Z,7.82
2023-01-26T14:07:06.946Z,6.72
2023-01-26T14:09:43.949Z,5.70
2023-01-26T14:12:22.005Z,6.45
2023-01-26T14:14:54.583Z,6.55
2023-01-26T14:17:28.695Z,6.35
2023-01-26T14:19:58.288Z,6.30
2023-01-26T14:22:27.103Z,6.28
2023-01-26T14:24:56.145Z,5.78
2023-01-26T14:27:34.307Z,6.38
2023-01-26T14:30:09.233Z,6.22
2023-01-26T14:32:37.824Z,6.75
2023-01-26T14:35:23.413Z,6.00
2023-01-26T14:37:52.079Z,5.93
2023-01-26T14:40:24.081Z,6.18
2023-01-26T14:42:54.806Z,5.70
2023-01-26T14:48:00.165Z,5.38
2023-01-26T14:50:32.257Z,6.07
2023-01-26T14:53:01.580Z,5.57
2023-01-26T14:55:32.134Z,5.97
2023-01-26T14:58:04.714Z,5.75
2023-01-26T15:00:38.260Z,6.18
2023-01-26T15:03:14.911Z,5.55
2023-01-26T15:05:43.316Z,5.35
2023-01-26T15:08:23.590Z,5.90
2023-01-26T15:11:16.369Z,5.53
2023-01-26T15:13:47.522Z,6.43
2023-01-26T15:16:20.324Z,6.00
2023-01-26T15:19:00.334Z,6.50
2023-01-26T15:21:34.614Z,5.45
2023-01-26T15:24:04.967Z,6.15
2023-01-26T15:26:35.393Z,6.13
2023-01-26T15:29:07.158Z,5.55
2023-01-26T15:31:41.524Z,5.55
2023-01-26T15:34:31.443Z,5.70
2023-01-26T15:37:00.601Z,5.53
2023-01-26T15:39:29.160Z,6.15
2023-01-26T15:42:14.503Z,5.72
2023-01-26T15:44:43.245Z,5.03
2023-01-26T15:47:13.931Z,5.60
2023-01-26T15:52:15.325Z,5.60
2023-01-26T15:54:43.869Z,6.43
2023-01-26T15:57:12.608Z,5.93
2023-01-26T15:59:41.586Z,5.82
2023-01-26T16:02:16.556Z,5.25
2023-01-26T16:04:45.590Z,6.25
2023-01-26T16:07:15.995Z,5.28
2023-01-26T16:09:44.737Z,4.97
2023-01-26T16:12:31.305Z,5.03
2023-01-26T16:15:00.947Z,4.65
2023-01-26T16:17:30.785Z,5.13
2023-01-26T16:20:00.266Z,4.75
2023-01-26T16:22:28.487Z,5.30
2023-01-26T16:24:56.789Z,5.18
2023-01-26T16:27:25.321Z,5.15
2023-01-26T16:29:53.723Z,5.53
2023-01-26T16:32:30.354Z,5.40
2023-01-26T16:34:58.771Z,5.25
2023-01-26T16:37:27.312Z,6.28
2023-01-26T16:39:55.711Z,5.72
2023-01-26T16:42:24.003Z,5.47
2023-01-26T16:44:52.407Z,5.78
2023-01-26T16:47:20.821Z,5.93
2023-01-26T16:49:50.935Z,5.65
2023-01-26T16:52:19.292Z,5.40
2023-01-26T16:54:48.376Z,6.05
2023-01-26T16:57:16.749Z,5.75
2023-01-26T16:59:45.303Z,5.80
2023-01-26T17:02:25.005Z,5.30
2023-01-26T17:04:54.792Z,6.43
2023-01-26T17:07:23.080Z,5.50
2023-01-26T17:09:51.774Z,6.13
2023-01-26T17:12:20.100Z,6.30
2023-01-26T17:14:48.504Z,6.53
2023-01-26T17:17:18.576Z,6.57
2023-01-26T17:19:46.859Z,5.97
2023-01-26T17:22:16.565Z,6.15
2023-01-26T17:24:45.124Z,7.07
2023-01-26T17:27:13.360Z,5.97
2023-01-26T17:29:42.327Z,6.00
2023-01-26T17:32:10.824Z,6.03
2023-01-26T17:34:39.091Z,6.13
2023-01-26T17:37:07.306Z,6.25
2023-01-26T17:39:37.335Z,7.10
2023-01-26T17:42:05.744Z,6.78
2023-01-26T17:44:34.025Z,6.50
2023-01-26T17:47:02.547Z,6.57
2023-01-26T17:49:30.824Z,6.72
2023-01-26T17:51:59.191Z,6.28
2023-01-26T17:54:27.690Z,6.40
2023-01-26T17:56:57.892Z,6.70
2023-01-26T17:59:26.412Z,6.30
2023-01-26T18:01:54.987Z,5.45
2023-01-26T18:04:23.328Z,5.78
2023-01-26T18:06:51.659Z,5.75
2023-01-26T18:09:20.560Z,4.72
2023-01-26T18:11:49.763Z,5.28
2023-01-26T18:14:19.506Z,5.60
2023-01-26T18:16:48.057Z,5.47
2023-01-26T18:19:16.725Z,5.18
2023-01-26T18:21:45.167Z,6.05
2023-01-26T18:24:13.865Z,5.90
2023-01-26T18:26:42.197Z,6.30
2023-01-26T18:29:11.785Z,6.20
2023-01-26T18:31:41.924Z,5.65
2023-01-26T18:34:12.082Z,6.40
2023-01-26T18:36:40.680Z,5.75
2023-01-26T18:39:13.845Z,5.18
2023-01-26T18:41:43.335Z,5.53
2023-01-26T18:44:11.852Z,6.07
2023-01-26T18:46:41.820Z,6.05
2023-01-26T18:49:11.253Z,5.38
2023-01-26T18:51:39.622Z,5.93
2023-01-26T18:54:09.824Z,6.45
2023-01-26T18:56:38.242Z,6.53
2023-01-26T18:59:06.562Z,5.70
2023-01-26T19:01:35.296Z,5.90
2023-01-26T19:04:06.840Z,6.35
2023-01-26T19:06:36.446Z,6.15
2023-01-26T19:09:07.118Z,5.93
2023-01-26T19:14:07.378Z,6.13
2023-01-26T19:16:36.181Z,5.18
2023-01-26T19:19:06.114Z,6.03
2023-01-26T19:21:34.613Z,5.95
2023-01-26T19:24:06.321Z,5.75
2023-01-26T19:26:35.384Z,5.95
2023-01-26T19:29:04.060Z,6.45
2023-01-26T19:31:32.454Z,8.38
2023-01-26T19:34:03.514Z,5.88
2023-01-26T19:36:36.909Z,5.85
2023-01-26T19:39:07.172Z,6.40
2023-01-26T19:41:35.916Z,7.03
2023-01-26T19:44:04.470Z,6.93
2023-01-26T19:46:33.100Z,5.80
2023-01-26T19:49:01.447Z,6.38
2023-01-26T19:51:30.721Z,6.35
2023-01-26T19:54:00.889Z,6.18
2023-01-26T19:56:31.898Z,5.57
2023-01-26T19:59:03.102Z,6.05
2023-01-26T20:01:33.381Z,6.60
2023-01-26T20:04:04.799Z,6.30
2023-01-26T20:06:36.313Z,6.50
2023-01-26T20:09:08.551Z,7.25
2023-01-26T20:11:37.817Z,6.50
2023-01-26T20:14:08.590Z,7.20
2023-01-26T20:16:37.302Z,7.32
2023-01-26T20:19:06.332Z,6.95
2023-01-26T20:21:35.526Z,6.80
2023-01-26T20:24:06.727Z,6.80
2023-01-26T20:26:36.349Z,6.22
2023-01-26T20:29:04.926Z,6.30
2023-01-26T20:31:33.968Z,6.55
2023-01-26T20:34:02.679Z,6.60
2023-01-26T20:36:32.062Z,6.45
2023-01-26T20:39:00.511Z,7.30
2023-01-26T20:41:32.802Z,6.60
2023-01-26T20:44:03.439Z,6.25
2023-01-26T20:49:02.563Z,6.60
2023-01-26T20:51:35.956Z,6.32
2023-01-26T20:54:07.385Z,6.47
2023-01-26T20:56:38.526Z,7.25
2023-01-26T20:59:08.727Z,6.70
2023-01-26T21:01:37.277Z,7.63
2023-01-26T21:04:06.991Z,6.85
2023-01-26T21:06:36.244Z,7.27
2023-01-26T21:09:05.031Z,6.57
2023-01-26T21:11:33.990Z,7.00
2023-01-26T21:14:03.910Z,7.18
2023-01-26T21:16:35.734Z,6.65
2023-01-26T21:19:04.381Z,7.68
2023-01-26T21:21:32.828Z,7.97
2023-01-26T21:24:01.563Z,7.80
2023-01-26T21:26:30.088Z,6.88
2023-01-26T21:29:00.623Z,8.00
2023-01-26T21:31:32.895Z,7.82
2023-01-26T21:34:02.555Z,7.10
2023-01-26T21:36:34.055Z,7.25
2023-01-26T21:39:07.178Z,7.38
2023-01-26T21:41:53.171Z,6.55
2023-01-26T21:44:23.750Z,7.85
2023-01-26T21:46:56.032Z,7.90
2023-01-26T21:49:26.057Z,7.05
2023-01-26T21:52:12.492Z,7.30
2023-01-26T21:54:41.589Z,7.47
2023-01-26T21:57:25.596Z,7.00
2023-01-26T21:59:54.211Z,6.72
2023-01-26T22:02:24.112Z,7.85
2023-01-26T22:04:52.862Z,7.25
2023-01-26T22:07:21.261Z,7.50
2023-01-26T22:09:49.577Z,7.72
2023-01-26T22:12:18.126Z,8.38
2023-01-26T22:14:46.590Z,7.13
2023-01-26T22:17:14.860Z,7.53
2023-01-26T22:19:44.650Z,7.45
2023-01-26T22:22:13.074Z,7.95
2023-01-26T22:24:41.477Z,7.00
2023-01-26T22:27:09.957Z,8.75
2023-01-26T22:29:38.252Z,8.40
2023-01-26T22:32:07.052Z,7.43
2023-01-26T22:34:36.034Z,6.93
2023-01-26T22:37:05.974Z,8.75
2023-01-26T22:39:34.282Z,8.07
2023-01-26T22:42:03.424Z,8.65
2023-01-26T22:44:31.726Z,8.30
2023-01-26T22:47:00.014Z,7.80
2023-01-26T22:49:28.449Z,7.53
2023-01-26T22:51:56.890Z,8.02
2023-01-26T22:54:27.756Z,7.95
2023-01-26T22:56:56.076Z,8.05
2023-01-26T22:59:24.436Z,8.20
2023-01-26T23:01:52.755Z,7.63
2023-01-26T23:04:21.085Z,7.15
2023-01-26T23:06:49.439Z,7.50
2023-01-26T23:09:17.705Z,7.50
2023-01-26T23:12:02.449Z,8.45
2023-01-26T23:14:31.654Z,8.60
2023-01-26T23:17:00.234Z,8.40
2023-01-26T23:19:30.089Z,7.78
2023-01-26T23:21:58.470Z,8.43
2023-01-26T23:24:26.849Z,8.43
2023-01-26T23:26:55.275Z,8.00
2023-01-26T23:29:25.182Z,7.35
2023-01-26T23:31:53.628Z,9.45
2023-01-26T23:34:22.330Z,8.50
2023-01-26T23:36:50.641Z,8.13
2023-01-26T23:39:19.040Z,7.65
2023-01-26T23:41:47.388Z,8.43
2023-01-26T23:44:15.851Z,8.95
2023-01-26T23:46:45.696Z,7.50
2023-01-26T23:49:14.175Z,7.57
2023-01-26T23:51:42.428Z,8.05
2023-01-26T23:54:10.723Z,7.82
2023-01-26T23:56:39.026Z,8.25
2023-01-26T23:59:07.464Z,8.85
